createdAt,value
2023-03-29T00:01:08.123Z,5.22
2023-03-29T00:03:40.640Z,6.80
2023-03-29T00:06:10.162Z,6.10
2023-03-29T00:08:40.670Z,6.03
2023-03-29T00:11:08.891Z,4.20
2023-03-29T00:13:37.528Z,4.40
2023-03-29T00:16:05.865Z,5.20
2023-03-29T00:18:33.822Z,5.35
2023-03-29T00:21:02.310Z,4.15
2023-03-29T00:23:31.191Z,4.77
2023-03-29T00:26:00.962Z,3.90
2023-03-29T00:28:28.897Z,3.40
2023-03-29T00:31:09.483Z,6.20
2023-03-29T00:33:38.238Z,3.90
2023-03-29T00:36:09.094Z,4.03
2023-03-29T00:38:38.125Z,5.78
2023-03-29T00:41:07.277Z,4.10
2023-03-29T00:44:01.193Z,4.40
2023-03-29T00:46:31.351Z,4.22
2023-03-29T00:49:15.772Z,3.57
2023-03-29T00:51:44.174Z,4.57
2023-03-29T00:54:19.050Z,3.72
2023-03-29T00:56:51.574Z,4.80
2023-03-29T00:59:25.201Z,7.97
2023-03-29T01:02:06.235Z,4.30
2023-03-29T01:04:41.989Z,7.20
2023-03-29T01:07:21.678Z,3.17
2023-03-29T01:10:09.671Z,6.63
2023-03-29T01:12:52.059Z,3.80
2023-03-29T01:15:28.805Z,3.47
2023-03-29T01:17:58.729Z,6.30
2023-03-29T01:20:43.958Z,3.00
2023-03-29T01:23:21.610Z,2.53
2023-03-29T01:26:10.645Z,3.08
2023-03-29T01:28:46.184Z,5.50
2023-03-29T01:31:30.618Z,2.72
2023-03-29T01:34:37.599Z,2.42
2023-03-29T01:37:25.179Z,4.75
2023-03-29T01:39:53.668Z,6.72
2023-03-29T01:42:31.586Z,3.60
2023-03-29T01:45:11.973Z,4.40
2023-03-29T01:48:02.987Z,5.22
2023-03-29T01:50:57.017Z,3.40
2023-03-29T01:53:39.982Z,3.22
2023-03-29T01:56:16.598Z,4.03
2023-03-29T01:58:52.145Z,4.28
2023-03-29T02:01:26.300Z,4.85
2023-03-29T02:03:59.721Z,5.15
2023-03-29T02:06:30.519Z,1.95
2023-03-29T02:09:01.959Z,3.60
2023-03-29T02:11:29.926Z,3.65
2023-03-29T02:13:58.361Z,5.45
2023-03-29T02:16:27.175Z,5.80
2023-03-29T02:18:57.303Z,4.47
2023-03-29T02:21:52.145Z,4.70
2023-03-29T02:24:22.525Z,4.50
2023-03-29T02:26:51.208Z,5.43
2023-03-29T02:29:19.237Z,4.60
2023-03-29T02:32:12.865Z,4.93
2023-03-29T02:34:50.832Z,5.33
2023-03-29T02:37:22.220Z,4.57
2023-03-29T02:39:53.021Z,4.18
2023-03-29T02:42:25.277Z,4.10
2023-03-29T02:44:57.954Z,3.58
2023-03-29T02:47:45.856Z,4.47
2023-03-29T02:50:14.485Z,3.60
2023-03-29T02:52:50.631Z,3.38
2023-03-29T02:55:22.009Z,3.53
2023-03-29T02:57:50.023Z,4.57
2023-03-29T03:00:19.986Z,4.03
2023-03-29T03:02:49.253Z,5.05
2023-03-29T03:05:18.033Z,3.50
2023-03-29T03:07:46.511Z,4.13
2023-03-29T03:10:15.266Z,3.70
2023-03-29T03:12:43.324Z,2.93
2023-03-29T03:15:11.743Z,5.03
2023-03-29T03:17:41.247Z,4.88
2023-03-29T03:20:13.704Z,4.47
2023-03-29T03:22:45.951Z,6.63
2023-03-29T03:25:13.988Z,4.77
2023-03-29T03:27:42.562Z,4.43
2023-03-29T03:30:12.629Z,2.58
2023-03-29T03:33:03.534Z,5.43
2023-03-29T03:35:57.567Z,3.80
2023-03-29T03:38:26.129Z,4.90
2023-03-29T03:41:00.138Z,3.03
2023-03-29T03:43:30.621Z,3.55
2023-03-29T03:45:59.243Z,4.22
2023-03-29T03:48:27.606Z,3.17
2023-03-29T03:51:01.466Z,5.20
2023-03-29T03:53:34.271Z,2.75
2023-03-29T03:56:15.267Z,5.18
2023-03-29T03:59:01.907Z,4.25
2023-03-29T04:01:35.913Z,3.25
2023-03-29T04:04:14.956Z,5.47
2023-03-29T04:06:55.182Z,3.50
2023-03-29T04:09:36.667Z,6.28
2023-03-29T04:12:27.430Z,4.28
2023-03-29T04:14:56.670Z,2.88
2023-03-29T04:17:26.569Z,3.10
2023-03-29T04:20:01.879Z,4.70
2023-03-29T04:22:34.292Z,4.30
2023-03-29T04:25:02.400Z,4.03
2023-03-29T04:27:53.443Z,5.25
2023-03-29T04:30:34.401Z,5.47
2023-03-29T04:33:21.552Z,4.18
2023-03-29T04:35:57.641Z,3.75
2023-03-29T04:38:27.194Z,4.07
2023-03-29T04:40:55.881Z,4.80
2023-03-29T04:43:47.064Z,3.03
2023-03-29T04:46:26.990Z,4.47
2023-03-29T04:49:14.087Z,4.95
2023-03-29T04:51:46.136Z,3.28
2023-03-29T04:54:17.341Z,6.28
2023-03-29T04:57:15.624Z,4.43
2023-03-29T04:59:48.859Z,6.47
2023-03-29T05:02:38.155Z,6.95
2023-03-29T05:05:07.095Z,5.63
2023-03-29T05:07:36.011Z,5.10
2023-03-29T05:10:04.907Z,10.70
2023-03-29T05:12:33.734Z,4.88
2023-03-29T05:15:01.913Z,4.82
2023-03-29T05:17:30.831Z,8.65
2023-03-29T05:20:10.130Z,5.60
2023-03-29T05:22:38.852Z,7.70
2023-03-29T05:25:12.130Z,7.38
2023-03-29T05:27:44.112Z,10.35
2023-03-29T05:30:15.806Z,9.07
2023-03-29T05:33:05.974Z,11.82
2023-03-29T05:35:36.430Z,9.40
2023-03-29T05:38:08.297Z,10.73
2023-03-29T05:40:36.748Z,9.80
2023-03-29T05:43:10.589Z,9.35
2023-03-29T05:45:38.828Z,7.82
2023-03-29T05:48:07.067Z,9.33
2023-03-29T05:50:38.923Z,7.40
2023-03-29T05:53:08.416Z,9.40
2023-03-29T05:55:36.874Z,7.97
2023-03-29T05:58:05.383Z,7.35
2023-03-29T06:00:39.017Z,7.47
2023-03-29T06:03:27.828Z,4.60
2023-03-29T06:06:00.925Z,5.10
2023-03-29T06:08:29.832Z,6.13
2023-03-29T06:11:16.029Z,4.88
2023-03-29T06:14:08.017Z,6.23
2023-03-29T06:16:42.800Z,8.50
2023-03-29T06:19:13.085Z,6.70
2023-03-29T06:21:42.373Z,4.68
2023-03-29T06:24:14.440Z,5.25
2023-03-29T06:26:47.958Z,5.07
2023-03-29T06:29:16.359Z,6.10
2023-03-29T06:31:47.275Z,3.70
2023-03-29T06:34:36.665Z,4.38
2023-03-29T06:37:24.685Z,3.90
2023-03-29T06:40:06.919Z,3.27
2023-03-29T06:42:45.349Z,3.53
2023-03-29T06:45:35.785Z,3.38
2023-03-29T06:48:09.129Z,3.95
2023-03-29T06:50:37.578Z,4.15
2023-03-29T06:53:12.097Z,5.30
2023-03-29T06:55:42.290Z,4.85
2023-03-29T06:58:30.179Z,5.72
2023-03-29T07:01:05.393Z,6.72
2023-03-29T07:03:47.849Z,5.35
2023-03-29T07:06:21.157Z,8.73
2023-03-29T07:08:52.761Z,6.93
2023-03-29T07:11:42.182Z,9.88
2023-03-29T07:14:22.872Z,6.47
2023-03-29T07:16:52.548Z,5.00
2023-03-29T07:19:30.555Z,7.23
2023-03-29T07:22:33.911Z,4.22
2023-03-29T07:25:04.723Z,3.83
2023-03-29T07:27:33.045Z,5.20
2023-03-29T07:30:01.029Z,4.93
2023-03-29T07:32:32.650Z,7.90
2023-03-29T07:35:19.268Z,4.53
2023-03-29T07:37:48.025Z,5.40
2023-03-29T07:40:19.165Z,7.57
2023-03-29T07:43:09.401Z,6.38
2023-03-29T07:45:38.106Z,10.33
2023-03-29T07:48:10.364Z,6.55
2023-03-29T07:50:54.276Z,5.72
2023-03-29T07:53:29.916Z,5.13
2023-03-29T07:56:00.747Z,7.13
2023-03-29T07:59:07.332Z,7.00
2023-03-29T08:01:37.423Z,5.20
2023-03-29T08:04:21.107Z,6.22
2023-03-29T08:07:07.733Z,8.63
2023-03-29T08:09:59.087Z,5.72
2023-03-29T08:12:54.131Z,6.47
2023-03-29T08:15:29.600Z,4.53
2023-03-29T08:17:57.684Z,8.70
2023-03-29T08:20:26.489Z,7.80
2023-03-29T08:22:57.921Z,5.63
2023-03-29T08:25:52.645Z,5.80
2023-03-29T08:28:21.574Z,6.22
2023-03-29T08:30:53.148Z,6.13
2023-03-29T08:33:21.911Z,8.63
2023-03-29T08:35:58.530Z,6.45
2023-03-29T08:38:32.106Z,7.63
2023-03-29T08:41:00.910Z,4.32
2023-03-29T08:43:48.792Z,5.93
2023-03-29T08:46:48.202Z,3.95
2023-03-29T08:49:40.048Z,6.93
2023-03-29T08:52:23.428Z,4.23
2023-03-29T08:54:54.290Z,8.00
2023-03-29T08:57:42.386Z,6.80
2023-03-29T09:00:23.528Z,4.85
2023-03-29T09:02:54.277Z,8.35
2023-03-29T09:05:36.138Z,5.00
2023-03-29T09:08:17.882Z,6.25
2023-03-29T09:11:08.939Z,7.40
2023-03-29T09:14:11.238Z,5.03
2023-03-29T09:16:49.813Z,7.82
2023-03-29T09:20:11.499Z,5.90
2023-03-29T09:23:00.215Z,6.70
2023-03-29T09:26:00.018Z,4.13
2023-03-29T09:28:56.271Z,3.83
2023-03-29T09:31:39.552Z,5.22
2023-03-29T09:34:30.698Z,6.27
2023-03-29T09:37:12.990Z,7.57
2023-03-29T09:39:43.374Z,4.70
2023-03-29T09:42:17.542Z,4.78
2023-03-29T09:44:53.147Z,6.82
2023-03-29T09:47:46.222Z,3.90
2023-03-29T09:50:30.145Z,8.75
2023-03-29T09:52:59.775Z,3.50
2023-03-29T09:55:33.018Z,5.60
2023-03-29T09:58:19.187Z,5.20
2023-03-29T10:00:51.719Z,6.47
2023-03-29T10:03:24.289Z,6.05
2023-03-29T10:06:07.505Z,5.35
2023-03-29T10:09:01.056Z,5.22
2023-03-29T10:11:38.825Z,5.85
2023-03-29T10:14:14.551Z,3.40
2023-03-29T10:16:47.120Z,6.20
2023-03-29T10:19:36.302Z,5.40
2023-03-29T10:22:15.052Z,4.22
2023-03-29T10:24:52.536Z,3.25
2023-03-29T10:27:27.555Z,5.27
2023-03-29T10:29:57.230Z,4.25
2023-03-29T10:32:34.223Z,2.92
2023-03-29T10:35:09.878Z,2.95
2023-03-29T10:37:45.080Z,5.03
2023-03-29T10:40:26.734Z,4.97
2023-03-29T10:42:58.459Z,6.32
2023-03-29T10:45:34.538Z,3.35
2023-03-29T10:48:07.695Z,5.18
2023-03-29T10:50:39.781Z,5.45
2023-03-29T10:53:28.070Z,3.43
2023-03-29T10:56:25.261Z,4.03
2023-03-29T10:59:25.922Z,4.10
2023-03-29T11:01:56.938Z,3.88
2023-03-29T11:04:46.151Z,3.38
2023-03-29T11:07:28.301Z,3.33
2023-03-29T11:10:02.849Z,5.85
2023-03-29T11:13:12.395Z,4.57
2023-03-29T11:16:05.404Z,3.13
2023-03-29T11:18:57.353Z,3.85
2023-03-29T11:21:51.779Z,3.50
2023-03-29T11:24:58.460Z,4.22
2023-03-29T11:27:38.553Z,3.30
2023-03-29T11:30:22.224Z,3.75
2023-03-29T11:33:28.397Z,5.95
2023-03-29T11:36:06.533Z,7.37
2023-03-29T11:38:41.364Z,4.15
2023-03-29T11:41:23.730Z,5.85
2023-03-29T11:44:34.244Z,3.42
2023-03-29T11:47:15.883Z,3.58
2023-03-29T11:49:57.995Z,7.30
2023-03-29T11:52:40.229Z,11.52
2023-03-29T11:55:08.473Z,6.38
2023-03-29T11:57:44.691Z,6.85
2023-03-29T12:00:30.583Z,6.65
2023-03-29T12:03:15.218Z,4.70
2023-03-29T12:05:49.429Z,4.78
2023-03-29T12:08:39.988Z,8.02
2023-03-29T12:11:10.305Z,7.25
2023-03-29T12:14:04.154Z,7.63
2023-03-29T12:17:01.728Z,9.43
2023-03-29T12:19:38.592Z,9.63
2023-03-29T12:22:11.909Z,6.05
2023-03-29T12:24:47.369Z,6.30
2023-03-29T12:27:21.567Z,6.70
2023-03-29T12:30:16.619Z,8.80
2023-03-29T12:33:03.475Z,6.68
2023-03-29T12:36:11.558Z,7.75
2023-03-29T12:38:59.752Z,8.55
2023-03-29T12:41:54.007Z,7.65
2023-03-29T12:45:02.047Z,6.77
2023-03-29T12:47:42.767Z,5.82
2023-03-29T12:50:42.226Z,7.78
2023-03-29T12:53:22.604Z,8.38
2023-03-29T12:56:09.062Z,7.82
2023-03-29T12:58:39.874Z,9.10
2023-03-29T13:01:09.691Z,6.38
2023-03-29T13:03:40.394Z,6.22
2023-03-29T13:06:11.355Z,6.53
2023-03-29T13:08:45.128Z,9.38
2023-03-29T13:11:28.128Z,9.17
2023-03-29T13:13:57.828Z,9.63
2023-03-29T13:16:35.367Z,8.27
2023-03-29T13:19:26.192Z,6.63
2023-03-29T13:21:54.384Z,7.22
2023-03-29T13:24:45.756Z,5.27
2023-03-29T13:27:32.292Z,6.07
2023-03-29T13:30:20.457Z,10.30
2023-03-29T13:32:56.441Z,8.98
2023-03-29T13:35:50.355Z,7.00
2023-03-29T13:38:23.512Z,13.67
2023-03-29T13:40:54.583Z,7.80
2023-03-29T13:43:50.408Z,10.23
2023-03-29T13:46:41.302Z,7.93
2023-03-29T13:49:29.166Z,7.63
2023-03-29T13:52:16.802Z,9.93
2023-03-29T13:55:04.854Z,11.85
2023-03-29T13:57:51.935Z,10.25
2023-03-29T14:00:25.756Z,10.05
2023-03-29T14:03:04.609Z,10.27
2023-03-29T14:05:33.271Z,7.20
2023-03-29T14:08:13.870Z,9.00
2023-03-29T14:10:44.326Z,9.18
2023-03-29T14:13:15.246Z,8.50
2023-03-29T14:15:51.122Z,9.05
2023-03-29T14:18:22.988Z,10.63
2023-03-29T14:20:56.708Z,11.82
2023-03-29T14:23:33.690Z,12.77
2023-03-29T14:26:17.048Z,12.20
2023-03-29T14:28:53.760Z,11.43
2023-03-29T14:31:42.622Z,7.97
2023-03-29T14:34:19.182Z,7.32
2023-03-29T14:36:49.731Z,9.82
2023-03-29T14:39:23.465Z,8.85
2023-03-29T14:41:58.423Z,10.82
2023-03-29T14:44:33.399Z,13.13
2023-03-29T14:47:03.433Z,10.50
2023-03-29T14:49:32.873Z,13.07
2023-03-29T14:52:01.134Z,12.70
2023-03-29T14:54:37.241Z,8.57
2023-03-29T14:57:08.597Z,9.40
2023-03-29T14:59:43.282Z,10.82
2023-03-29T15:02:26.433Z,9.73
2023-03-29T15:05:00.456Z,13.38
2023-03-29T15:07:30.211Z,9.98
2023-03-29T15:10:00.578Z,11.47
2023-03-29T15:12:33.149Z,12.43
2023-03-29T15:15:01.881Z,11.15
2023-03-29T15:17:50.329Z,10.07
2023-03-29T15:20:27.853Z,13.63
2023-03-29T15:23:04.418Z,17.80
2023-03-29T15:25:48.193Z,8.75
2023-03-29T15:28:29.078Z,15.45
2023-03-29T15:31:12.165Z,11.20
2023-03-29T15:33:42.391Z,12.73
2023-03-29T15:36:15.929Z,11.97
2023-03-29T15:38:45.366Z,10.68
2023-03-29T15:41:16.572Z,10.98
2023-03-29T15:43:44.870Z,13.75
2023-03-29T15:46:14.334Z,8.38
2023-03-29T15:48:43.372Z,12.53
2023-03-29T15:51:15.737Z,12.35
2023-03-29T15:53:43.889Z,10.27
2023-03-29T15:56:17.678Z,11.65
2023-03-29T15:58:46.242Z,13.13
2023-03-29T16:01:34.597Z,9.40
2023-03-29T16:04:05.193Z,8.85
2023-03-29T16:06:34.677Z,11.15
2023-03-29T16:09:03.368Z,11.57
2023-03-29T16:11:32.310Z,10.93
2023-03-29T16:14:01.265Z,13.93
2023-03-29T16:16:29.479Z,13.65
2023-03-29T16:18:57.581Z,26.30
2023-03-29T16:21:27.158Z,16.70
2023-03-29T16:23:55.231Z,11.05
2023-03-29T16:26:23.631Z,17.43
2023-03-29T16:28:51.762Z,14.57
2023-03-29T16:31:20.821Z,11.77
2023-03-29T16:33:52.013Z,9.27
2023-03-29T16:36:20.339Z,9.38
2023-03-29T16:38:48.344Z,16.47
2023-03-29T16:41:18.234Z,15.70
2023-03-29T16:43:46.582Z,14.18
2023-03-29T16:46:14.607Z,8.90
2023-03-29T16:48:43.173Z,10.98
2023-03-29T16:51:11.835Z,11.17
2023-03-29T16:53:40.915Z,11.45
2023-03-29T16:56:09.928Z,10.10
2023-03-29T16:58:40.360Z,7.70
2023-03-29T17:01:10.437Z,10.60
2023-03-29T17:03:40.134Z,16.73
2023-03-29T17:06:09.557Z,12.43
2023-03-29T17:08:39.148Z,19.40
2023-03-29T17:11:09.708Z,12.40
2023-03-29T17:13:38.317Z,16.17
2023-03-29T17:16:07.278Z,13.63
2023-03-29T17:18:35.923Z,10.88
2023-03-29T17:21:03.958Z,8.32
2023-03-29T17:23:32.077Z,10.90
2023-03-29T17:26:00.218Z,11.20
2023-03-29T17:28:28.382Z,14.07
2023-03-29T17:30:56.959Z,9.23
2023-03-29T17:33:26.599Z,14.90
2023-03-29T17:35:55.080Z,12.02
2023-03-29T17:38:23.340Z,10.70
2023-03-29T17:40:55.070Z,14.43
2023-03-29T17:43:23.631Z,14.65
2023-03-29T17:45:54.943Z,11.55
2023-03-29T17:48:24.761Z,10.73
2023-03-29T17:50:55.165Z,12.93
2023-03-29T17:53:23.102Z,10.67
2023-03-29T17:55:51.888Z,11.55
2023-03-29T17:58:20.228Z,8.75
2023-03-29T18:00:48.417Z,7.55
2023-03-29T18:03:16.531Z,13.57
2023-03-29T18:05:44.484Z,7.67
2023-03-29T18:08:14.192Z,9.77
2023-03-29T18:10:42.277Z,7.28
2023-03-29T18:13:14.324Z,10.70
2023-03-29T18:15:44.461Z,8.88
2023-03-29T18:18:12.466Z,7.37
2023-03-29T18:20:40.841Z,7.60
2023-03-29T18:23:11.850Z,10.07
2023-03-29T18:25:39.995Z,8.88
2023-03-29T18:28:08.226Z,8.40
2023-03-29T18:30:36.620Z,9.23
2023-03-29T18:33:04.711Z,8.95
2023-03-29T18:35:36.244Z,8.90
2023-03-29T18:38:04.259Z,8.27
2023-03-29T18:40:32.499Z,11.63
2023-03-29T18:43:01.032Z,13.07
2023-03-29T18:45:28.827Z,16.05
2023-03-29T18:47:56.881Z,10.82
2023-03-29T18:50:25.218Z,14.43
2023-03-29T18:52:53.308Z,13.68
2023-03-29T18:55:21.735Z,13.47
2023-03-29T18:57:49.939Z,18.00
2023-03-29T19:00:18.547Z,14.73
2023-03-29T19:02:46.789Z,21.00
2023-03-29T19:05:15.363Z,19.33
2023-03-29T19:07:43.553Z,16.07
2023-03-29T19:10:12.646Z,18.90
2023-03-29T19:12:42.783Z,14.30
2023-03-29T19:15:13.742Z,14.32
2023-03-29T19:17:42.327Z,12.50
2023-03-29T19:20:11.038Z,9.17
2023-03-29T19:22:39.791Z,9.65
2023-03-29T19:25:08.257Z,9.52
2023-03-29T19:27:37.085Z,6.45
2023-03-29T19:30:05.893Z,7.82
2023-03-29T19:32:34.354Z,12.23
2023-03-29T19:35:02.709Z,7.75
2023-03-29T19:37:31.327Z,9.20
2023-03-29T19:39:59.377Z,8.10
2023-03-29T19:42:27.290Z,13.10
2023-03-29T19:44:55.334Z,9.67
2023-03-29T19:47:23.536Z,9.10
2023-03-29T19:49:51.878Z,10.32
2023-03-29T19:52:24.377Z,8.27
2023-03-29T19:54:54.457Z,11.88
2023-03-29T19:57:23.457Z,8.93
2023-03-29T19:59:53.811Z,12.77
2023-03-29T20:02:23.367Z,11.88
2023-03-29T20:04:51.294Z,9.10
2023-03-29T20:07:20.657Z,10.23
2023-03-29T20:09:48.786Z,10.23
2023-03-29T20:12:16.817Z,9.35
2023-03-29T20:14:44.848Z,9.27
2023-03-29T20:17:13.482Z,9.02
2023-03-29T20:19:44.435Z,11.57
2023-03-29T20:22:12.844Z,9.30
2023-03-29T20:24:40.774Z,8.50
2023-03-29T20:27:09.128Z,12.15
2023-03-29T20:29:36.958Z,12.02
2023-03-29T20:32:05.117Z,7.65
2023-03-29T20:34:33.120Z,10.13
2023-03-29T20:37:01.702Z,8.43
2023-03-29T20:39:31.781Z,6.25
2023-03-29T20:42:00.918Z,9.50
2023-03-29T20:44:28.845Z,8.85
2023-03-29T20:47:04.379Z,9.43
2023-03-29T20:49:39.600Z,8.82
2023-03-29T20:52:15.835Z,7.82
2023-03-29T20:54:45.478Z,9.32
2023-03-29T20:57:16.449Z,6.28
2023-03-29T20:59:45.854Z,8.87
2023-03-29T21:02:24.238Z,8.82
2023-03-29T21:04:54.085Z,7.35
2023-03-29T21:07:22.399Z,6.85
2023-03-29T21:09:50.811Z,9.18
2023-03-29T21:12:20.877Z,9.03
2023-03-29T21:14:50.999Z,8.55
2023-03-29T21:17:19.142Z,10.77
2023-03-29T21:19:47.178Z,7.82
2023-03-29T21:22:15.675Z,12.82
2023-03-29T21:24:43.608Z,16.73
2023-03-29T21:27:11.859Z,15.60
2023-03-29T21:29:39.886Z,18.88
2023-03-29T21:32:07.981Z,22.67
2023-03-29T21:34:35.879Z,25.85
2023-03-29T21:37:03.876Z,21.17
2023-03-29T21:39:31.896Z,19.75
2023-03-29T21:42:00.167Z,21.50
2023-03-29T21:44:28.304Z,18.25
2023-03-29T21:46:56.414Z,19.25
2023-03-29T21:49:24.526Z,13.17
2023-03-29T21:51:52.968Z,11.75
2023-03-29T21:54:20.958Z,13.57
2023-03-29T21:56:49.142Z,9.05
2023-03-29T21:59:17.277Z,17.95
2023-03-29T22:01:45.397Z,11.37
2023-03-29T22:04:19.798Z,13.13
2023-03-29T22:06:53.756Z,14.13
2023-03-29T22:09:21.910Z,11.27
2023-03-29T22:11:50.613Z,16.50
2023-03-29T22:14:19.901Z,12.63
2023-03-29T22:16:47.946Z,13.13
2023-03-29T22:19:15.826Z,12.18
2023-03-29T22:21:44.482Z,11.68
2023-03-29T22:24:12.643Z,14.55
2023-03-29T22:26:41.426Z,18.65
2023-03-29T22:29:09.410Z,13.90
2023-03-29T22:31:38.506Z,16.27
2023-03-29T22:34:06.568Z,10.50
2023-03-29T22:36:36.582Z,14.50
2023-03-29T22:39:05.459Z,13.80
2023-03-29T22:41:33.407Z,12.50
2023-03-29T22:44:04.145Z,14.95
2023-03-29T22:46:32.227Z,11.23
2023-03-29T22:49:00.608Z,8.88
2023-03-29T22:51:28.721Z,9.90
2023-03-29T22:53:56.663Z,9.47
2023-03-29T22:56:25.482Z,11.88
2023-03-29T22:58:53.825Z,10.60
2023-03-29T23:01:21.951Z,11.35
2023-03-29T23:03:49.996Z,15.13
2023-03-29T23:06:18.375Z,9.63
2023-03-29T23:08:46.374Z,8.50
2023-03-29T23:11:14.314Z,7.70
2023-03-29T23:13:42.316Z,10.40
2023-03-29T23:16:10.807Z,11.25
2023-03-29T23:18:39.226Z,11.80
2023-03-29T23:21:07.871Z,9.07
2023-03-29T23:23:36.092Z,8.63
2023-03-29T23:26:04.687Z,9.60
2023-03-29T23:28:36.088Z,8.88
2023-03-29T23:31:10.464Z,9.20
2023-03-29T23:33:41.634Z,9.57
2023-03-29T23:36:12.149Z,10.02
2023-03-29T23:38:41.180Z,7.68
2023-03-29T23:41:11.270Z,6.80
2023-03-29T23:43:43.811Z,8.67
2023-03-29T23:46:14.410Z,12.48
2023-03-29T23:48:51.326Z,12.75
2023-03-29T23:54:04.338Z,7.68
2023-03-29T23:56:32.320Z,11.47
2023-03-29T23:59:00.357Z,12.85
